Nabern/Teck Airport EDTN

Flugplatz Daten

Name: Nabern/Teck Airport

Ident: EDTN

Lat: 48,61277771

Long: 9,477222443

Platzhöhe: 1214 ft

IataCode:

City: Nabern

Metar

2019/04/26 13:00
EDTN 261300Z 34010KT 300V010 9999 SCT020 25/10 Q1019

Taf

Gewünschte Webcam nicht vorhanden? Dann fügen Sie eine hinzu. Sie wird dann so schnell wie möglich freigeschaltet
Url: Title: